createdAt,value
2023-02-19T00:01:03.717Z,4.22
2023-02-19T00:03:31.473Z,3.70
2023-02-19T00:06:02.264Z,4.50
2023-02-19T00:08:30.958Z,3.20
2023-02-19T00:11:03.129Z,3.40
2023-02-19T00:13:30.879Z,3.90
2023-02-19T00:15:58.792Z,4.40
2023-02-19T00:18:26.496Z,4.28
2023-02-19T00:20:56.466Z,4.88
2023-02-19T00:23:24.127Z,4.80
2023-02-19T00:25:51.774Z,5.32
2023-02-19T00:28:20.797Z,5.70
2023-02-19T00:30:48.561Z,5.95
2023-02-19T00:33:16.836Z,6.32
2023-02-19T00:35:44.616Z,6.75
2023-02-19T00:38:12.323Z,7.20
2023-02-19T00:40:40.123Z,7.40
2023-02-19T00:43:07.814Z,7.43
2023-02-19T00:45:36.881Z,7.97
2023-02-19T00:48:04.765Z,8.63
2023-02-19T00:50:32.488Z,9.13
2023-02-19T00:53:00.210Z,10.25
2023-02-19T00:55:27.929Z,10.38
2023-02-19T00:57:55.594Z,10.70
2023-02-19T01:00:23.326Z,10.93
2023-02-19T01:02:52.311Z,11.82
2023-02-19T01:05:20.208Z,12.02
2023-02-19T01:07:47.890Z,12.50
2023-02-19T01:10:15.660Z,13.57
2023-02-19T01:12:43.341Z,14.82
2023-02-19T01:15:11.004Z,15.43
2023-02-19T01:17:38.944Z,15.05
2023-02-19T01:20:08.611Z,16.58
2023-02-19T01:22:36.286Z,17.48
2023-02-19T01:25:04.645Z,17.23
2023-02-19T01:27:32.326Z,18.88
2023-02-19T01:30:00.075Z,19.95
2023-02-19T01:32:27.867Z,20.33
2023-02-19T01:34:55.647Z,21.65
2023-02-19T01:37:24.645Z,22.33
2023-02-19T01:39:52.475Z,23.02
2023-02-19T01:42:20.216Z,23.08
2023-02-19T01:45:25.123Z,25.02
2023-02-19T01:48:03.284Z,25.55
2023-02-19T01:50:34.363Z,27.38
2023-02-19T01:53:05.286Z,27.90
2023-02-19T01:55:33.427Z,28.90
2023-02-19T01:58:01.273Z,29.38
2023-02-19T02:00:29.196Z,28.30
2023-02-19T02:02:57.538Z,30.88
2023-02-19T02:05:32.029Z,31.90
2023-02-19T02:08:21.136Z,33.83
2023-02-19T02:10:49.455Z,33.58
2023-02-19T02:13:17.967Z,33.97
2023-02-19T02:15:50.423Z,35.58
2023-02-19T02:18:23.493Z,35.88
2023-02-19T02:20:59.576Z,36.78
2023-02-19T02:23:35.948Z,37.70
2023-02-19T02:26:16.042Z,40.30
2023-02-19T02:29:03.817Z,38.05
2023-02-19T02:31:34.746Z,40.72
2023-02-19T02:34:04.944Z,41.20
2023-02-19T02:36:34.589Z,42.90
2023-02-19T02:39:03.338Z,42.47
2023-02-19T02:41:33.069Z,44.70
2023-02-19T02:44:01.990Z,46.70
2023-02-19T02:46:34.006Z,47.60
2023-02-19T02:49:04.011Z,46.88
2023-02-19T02:51:36.444Z,48.42
2023-02-19T02:54:28.899Z,48.80
2023-02-19T02:56:57.384Z,50.47
2023-02-19T02:59:28.735Z,52.63
2023-02-19T03:02:14.081Z,55.15
2023-02-19T03:05:00.432Z,53.53
2023-02-19T03:07:29.719Z,55.08
2023-02-19T03:09:57.708Z,57.13
2023-02-19T03:12:42.815Z,59.00
2023-02-19T03:15:28.251Z,57.92
2023-02-19T03:18:16.400Z,59.25
2023-02-19T03:20:46.836Z,61.10
2023-02-19T03:23:14.995Z,65.15
2023-02-19T03:26:00.185Z,63.53
2023-02-19T03:28:57.098Z,67.97
2023-02-19T03:31:25.562Z,67.70
2023-02-19T03:33:55.480Z,67.45
2023-02-19T03:36:26.523Z,70.57
2023-02-19T03:38:58.101Z,72.85
2023-02-19T03:41:28.293Z,77.28
2023-02-19T03:44:02.323Z,73.03
2023-02-19T03:46:32.934Z,78.60
2023-02-19T03:49:04.186Z,76.43
2023-02-19T03:51:33.334Z,82.10
2023-02-19T03:54:06.700Z,83.13
2023-02-19T03:56:35.198Z,81.85
2023-02-19T03:59:06.600Z,89.03
2023-02-19T04:01:37.089Z,89.53
2023-02-19T04:04:10.770Z,91.90
2023-02-19T04:06:38.660Z,90.18
2023-02-19T04:09:08.452Z,92.90
2023-02-19T04:11:36.233Z,91.40
2023-02-19T04:14:08.359Z,95.32
2023-02-19T04:16:36.872Z,95.30
2023-02-19T04:19:08.143Z,93.72
2023-02-19T04:21:37.030Z,94.03
2023-02-19T04:24:07.428Z,97.72
2023-02-19T04:26:35.129Z,100.28
2023-02-19T04:29:02.933Z,100.65
2023-02-19T04:31:31.331Z,100.03
2023-02-19T04:33:59.179Z,101.90
2023-02-19T04:36:28.213Z,102.68
2023-02-19T04:38:55.911Z,102.60
2023-02-19T04:41:23.589Z,103.78
2023-02-19T04:43:51.257Z,104.20
2023-02-19T04:46:19.035Z,106.65
2023-02-19T04:48:46.831Z,103.10
2023-02-19T04:51:14.574Z,107.78
2023-02-19T04:53:43.667Z,105.38
2023-02-19T04:56:12.768Z,105.63
2023-02-19T04:58:40.526Z,107.32
2023-02-19T05:01:08.727Z,107.75
2023-02-19T05:03:36.859Z,106.20
2023-02-19T05:06:04.878Z,105.57
2023-02-19T05:08:32.581Z,105.72
2023-02-19T05:11:01.732Z,108.30
2023-02-19T05:13:29.515Z,106.35
2023-02-19T05:15:58.280Z,104.20
2023-02-19T05:18:26.023Z,107.35
2023-02-19T05:20:53.990Z,104.68
2023-02-19T05:23:21.865Z,104.78
2023-02-19T05:25:49.593Z,106.78
2023-02-19T05:28:18.613Z,109.13
2023-02-19T05:30:46.586Z,107.88
2023-02-19T05:33:14.731Z,110.22
2023-02-19T05:35:43.670Z,105.32
2023-02-19T05:38:11.878Z,105.28
2023-02-19T05:40:39.636Z,107.03
2023-02-19T05:43:07.557Z,105.68
2023-02-19T05:45:36.674Z,102.72
2023-02-19T05:48:04.742Z,105.35
2023-02-19T05:50:32.789Z,103.93
2023-02-19T05:53:12.452Z,104.80
2023-02-19T05:55:40.173Z,104.63
2023-02-19T05:58:07.832Z,102.43
2023-02-19T06:00:36.820Z,103.75
2023-02-19T06:03:04.530Z,100.70
2023-02-19T06:05:32.182Z,101.88
2023-02-19T06:07:59.904Z,97.35
2023-02-19T06:10:28.213Z,100.22
2023-02-19T06:12:56.431Z,99.55
2023-02-19T06:15:24.100Z,95.28
2023-02-19T06:17:53.112Z,97.13
2023-02-19T06:20:20.876Z,92.47
2023-02-19T06:22:50.587Z,95.13
2023-02-19T06:25:18.528Z,96.72
2023-02-19T06:27:46.322Z,92.15
2023-02-19T06:30:14.362Z,96.00
2023-02-19T06:32:42.052Z,95.88
2023-02-19T06:35:11.161Z,91.85
2023-02-19T06:37:38.848Z,91.60
2023-02-19T06:40:07.473Z,87.55
2023-02-19T06:42:35.235Z,88.72
2023-02-19T06:45:02.962Z,89.60
2023-02-19T06:47:32.242Z,82.28
2023-02-19T06:49:59.955Z,83.65
2023-02-19T06:52:29.134Z,82.22
2023-02-19T06:54:56.792Z,81.53
2023-02-19T06:57:24.481Z,78.00
2023-02-19T06:59:52.275Z,74.60
2023-02-19T07:02:19.967Z,78.47
2023-02-19T07:04:47.659Z,75.15
2023-02-19T07:07:15.335Z,76.63
2023-02-19T07:09:44.343Z,73.47
2023-02-19T07:12:12.110Z,70.93
2023-02-19T07:14:39.771Z,72.32
2023-02-19T07:17:07.490Z,67.45
2023-02-19T07:19:35.172Z,65.45
2023-02-19T07:22:02.901Z,68.03
2023-02-19T07:24:30.588Z,65.88
2023-02-19T07:26:59.607Z,66.18
2023-02-19T07:29:27.334Z,66.35
2023-02-19T07:31:55.061Z,62.95
2023-02-19T07:34:22.787Z,61.20
2023-02-19T07:36:50.512Z,60.72
2023-02-19T07:39:18.230Z,61.30
2023-02-19T07:41:45.984Z,61.20
2023-02-19T07:44:27.878Z,60.33
2023-02-19T07:46:55.574Z,56.83
2023-02-19T07:49:23.255Z,57.25
2023-02-19T07:51:50.941Z,55.20
2023-02-19T07:54:18.641Z,56.85
2023-02-19T07:56:46.286Z,54.85
2023-02-19T07:59:13.972Z,53.88
2023-02-19T08:02:00.655Z,51.55
2023-02-19T08:04:28.334Z,51.67
2023-02-19T08:06:55.997Z,49.53
2023-02-19T08:09:23.655Z,50.80
2023-02-19T08:12:08.729Z,49.13
2023-02-19T08:14:36.455Z,46.95
2023-02-19T08:17:05.482Z,48.40
2023-02-19T08:19:33.178Z,45.92
2023-02-19T08:22:00.892Z,45.65
2023-02-19T08:24:28.583Z,45.92
2023-02-19T08:26:56.270Z,45.28
2023-02-19T08:29:24.088Z,43.78
2023-02-19T08:31:51.810Z,43.83
2023-02-19T08:34:20.845Z,44.35
2023-02-19T08:36:48.488Z,41.45
2023-02-19T08:39:16.156Z,41.63
2023-02-19T08:41:43.821Z,41.17
2023-02-19T08:44:11.490Z,39.72
2023-02-19T08:46:40.225Z,38.20
2023-02-19T08:49:07.887Z,39.13
2023-02-19T08:51:36.888Z,36.95
2023-02-19T08:54:05.053Z,36.78
2023-02-19T08:56:32.741Z,36.70
2023-02-19T08:59:00.483Z,34.92
2023-02-19T09:01:28.234Z,33.28
2023-02-19T09:03:56.032Z,32.50
2023-02-19T09:06:23.717Z,34.60
2023-02-19T09:08:52.700Z,32.53
2023-02-19T09:11:20.359Z,31.88
2023-02-19T09:13:48.041Z,31.40
2023-02-19T09:16:15.855Z,30.73
2023-02-19T09:18:45.695Z,29.20
2023-02-19T09:21:13.571Z,27.65
2023-02-19T09:23:41.370Z,28.45
2023-02-19T09:26:11.389Z,33.63
2023-02-19T09:28:41.511Z,26.25
2023-02-19T09:31:11.081Z,25.02
2023-02-19T09:33:39.141Z,26.55
2023-02-19T09:36:07.450Z,22.15
2023-02-19T09:38:35.099Z,23.05
2023-02-19T09:41:07.305Z,20.45
2023-02-19T09:43:36.302Z,27.13
2023-02-19T09:46:04.741Z,19.20
2023-02-19T09:48:32.670Z,16.83
2023-02-19T09:51:01.570Z,17.30
2023-02-19T09:53:30.668Z,16.27
2023-02-19T09:55:58.363Z,10.77
2023-02-19T09:58:27.183Z,11.95
2023-02-19T10:00:57.665Z,21.13
2023-02-19T10:03:30.607Z,19.10
2023-02-19T10:05:58.939Z,13.90
2023-02-19T10:08:26.596Z,17.30
2023-02-19T10:10:54.304Z,70.50
2023-02-19T10:13:23.360Z,16.83
2023-02-19T10:15:51.780Z,14.18
2023-02-19T10:18:23.202Z,15.80
2023-02-19T10:20:51.553Z,16.27
2023-02-19T10:23:19.287Z,9.70
2023-02-19T10:25:48.556Z,12.93
2023-02-19T10:28:16.909Z,16.63
2023-02-19T10:30:44.646Z,10.80
2023-02-19T10:33:13.333Z,9.98
2023-02-19T10:35:55.314Z,9.63
2023-02-19T10:38:25.855Z,6.20
2023-02-19T10:40:57.266Z,14.52
2023-02-19T10:43:31.538Z,15.98
2023-02-19T10:45:59.582Z,9.15
2023-02-19T10:48:30.558Z,9.43
2023-02-19T10:51:04.762Z,12.50
2023-02-19T10:53:44.001Z,16.35
2023-02-19T10:56:13.512Z,14.40
2023-02-19T10:58:44.608Z,16.05
2023-02-19T11:01:19.441Z,19.15
2023-02-19T11:03:48.271Z,16.75
2023-02-19T11:06:18.346Z,16.48
2023-02-19T11:08:51.403Z,17.92
2023-02-19T11:11:27.344Z,16.58
2023-02-19T11:13:55.610Z,14.38
2023-02-19T11:16:23.422Z,14.40
2023-02-19T11:18:57.033Z,9.40
2023-02-19T11:21:32.860Z,12.45
2023-02-19T11:24:01.175Z,10.20
2023-02-19T11:26:30.403Z,11.30
2023-02-19T11:28:58.645Z,6.20
2023-02-19T11:31:27.449Z,12.43
2023-02-19T11:33:59.033Z,13.88
2023-02-19T11:36:33.217Z,7.00
2023-02-19T11:39:04.079Z,6.55
2023-02-19T11:41:53.476Z,7.22
2023-02-19T11:44:30.139Z,8.95
2023-02-19T11:47:03.942Z,5.80
2023-02-19T11:49:36.624Z,14.80
2023-02-19T11:52:23.066Z,12.32
2023-02-19T11:54:52.576Z,19.45
2023-02-19T11:57:33.669Z,20.45
2023-02-19T12:00:05.111Z,12.90
2023-02-19T12:02:57.516Z,13.50
2023-02-19T12:05:39.885Z,15.43
2023-02-19T12:08:28.948Z,14.93
2023-02-19T12:11:17.036Z,14.35
2023-02-19T12:14:06.889Z,11.40
2023-02-19T12:16:36.709Z,10.00
2023-02-19T12:19:29.949Z,9.48
2023-02-19T12:22:05.308Z,13.43
2023-02-19T12:25:11.943Z,9.32
2023-02-19T12:27:47.756Z,11.48
2023-02-19T12:30:26.231Z,15.90
2023-02-19T12:33:00.718Z,14.38
2023-02-19T12:35:36.101Z,8.18
2023-02-19T12:38:09.465Z,18.52
2023-02-19T12:40:44.472Z,14.90
2023-02-19T12:43:16.023Z,14.57
2023-02-19T12:45:45.503Z,11.93
2023-02-19T12:48:15.926Z,6.35
2023-02-19T12:50:43.649Z,15.23
2023-02-19T12:53:23.814Z,12.38
2023-02-19T12:55:51.464Z,14.60
2023-02-19T12:58:27.129Z,16.50
2023-02-19T13:00:56.574Z,20.10
2023-02-19T13:03:26.268Z,10.25
2023-02-19T13:05:54.902Z,12.05
2023-02-19T13:08:24.834Z,12.02
2023-02-19T13:10:54.648Z,11.25
2023-02-19T13:13:24.899Z,8.32
2023-02-19T13:15:53.758Z,14.02
2023-02-19T13:18:23.497Z,8.88
2023-02-19T13:20:51.754Z,14.93
2023-02-19T13:23:38.750Z,9.90
2023-02-19T13:26:24.578Z,11.93
2023-02-19T13:29:03.453Z,10.73
2023-02-19T13:31:46.420Z,8.77
2023-02-19T13:34:18.633Z,14.45
2023-02-19T13:36:48.219Z,19.88
2023-02-19T13:39:16.813Z,13.55
2023-02-19T13:41:50.777Z,13.93
2023-02-19T13:44:20.887Z,13.27
2023-02-19T13:46:49.418Z,13.35
2023-02-19T13:49:44.814Z,13.98
2023-02-19T13:52:35.728Z,20.85
2023-02-19T13:55:46.589Z,15.05
2023-02-19T13:59:01.345Z,22.30
2023-02-19T14:02:12.190Z,27.40
2023-02-19T14:04:51.025Z,15.68
2023-02-19T14:07:54.865Z,19.00
2023-02-19T14:10:57.604Z,19.45
2023-02-19T14:14:06.626Z,15.32
2023-02-19T14:16:50.267Z,17.30
2023-02-19T14:19:50.088Z,29.83
2023-02-19T14:22:52.598Z,17.95
2023-02-19T14:25:28.580Z,21.73
2023-02-19T14:27:58.435Z,14.75
2023-02-19T14:30:26.402Z,30.10
2023-02-19T14:33:02.790Z,22.10
2023-02-19T14:35:40.232Z,11.75
2023-02-19T14:38:07.972Z,12.68
2023-02-19T14:40:39.227Z,13.10
2023-02-19T14:43:07.034Z,32.92
2023-02-19T14:45:38.428Z,15.25
2023-02-19T14:48:06.293Z,14.45
2023-02-19T14:50:34.971Z,14.00
2023-02-19T14:53:04.229Z,14.13
2023-02-19T14:55:33.808Z,11.55
2023-02-19T14:58:05.552Z,13.25
2023-02-19T15:00:36.885Z,16.52
2023-02-19T15:03:05.193Z,16.60
2023-02-19T15:05:33.935Z,18.33
2023-02-19T15:08:02.817Z,18.98
2023-02-19T15:10:31.480Z,16.85
2023-02-19T15:13:00.002Z,24.20
2023-02-19T15:15:30.495Z,21.45
2023-02-19T15:17:58.969Z,28.15
2023-02-19T15:20:27.337Z,24.52
2023-02-19T15:22:55.147Z,20.20
2023-02-19T15:25:23.460Z,12.82
2023-02-19T15:27:51.296Z,18.83
2023-02-19T15:30:23.359Z,36.40
2023-02-19T15:32:56.170Z,36.08
2023-02-19T15:35:25.030Z,25.30
2023-02-19T15:37:52.831Z,31.75
2023-02-19T15:40:20.750Z,97.57
2023-02-19T15:42:48.467Z,27.80
2023-02-19T15:45:18.301Z,34.25
2023-02-19T15:47:49.048Z,14.93
2023-02-19T15:50:19.442Z,22.75
2023-02-19T15:52:48.956Z,15.50
2023-02-19T15:55:29.313Z,13.55
2023-02-19T15:58:00.417Z,15.15
2023-02-19T16:00:32.426Z,17.85
2023-02-19T16:03:00.205Z,15.35
2023-02-19T16:05:30.621Z,29.27
2023-02-19T16:08:17.931Z,20.38
2023-02-19T16:10:55.913Z,15.82
2023-02-19T16:13:27.114Z,20.75
2023-02-19T16:15:58.644Z,17.02
2023-02-19T16:18:26.451Z,26.55
2023-02-19T16:20:55.576Z,14.25
2023-02-19T16:23:25.277Z,12.30
2023-02-19T16:25:58.982Z,23.48
2023-02-19T16:28:27.353Z,96.68
2023-02-19T16:30:58.637Z,268.80
2023-02-19T16:33:39.841Z,45.38
2023-02-19T16:36:19.573Z,26.60
2023-02-19T16:39:21.136Z,22.50
2023-02-19T16:42:14.366Z,35.53
2023-02-19T16:44:42.917Z,34.38
2023-02-19T16:47:28.035Z,25.52
2023-02-19T16:49:55.874Z,28.20
2023-02-19T16:52:24.862Z,26.27
2023-02-19T16:54:52.524Z,19.38
2023-02-19T16:57:20.435Z,22.83
2023-02-19T16:59:48.213Z,18.10
2023-02-19T17:02:18.941Z,20.67
2023-02-19T17:04:46.994Z,23.65
2023-02-19T17:07:15.290Z,19.70
2023-02-19T17:09:44.277Z,17.05
2023-02-19T17:12:13.399Z,21.67
2023-02-19T17:14:41.156Z,18.73
2023-02-19T17:17:08.864Z,18.13
2023-02-19T17:19:36.552Z,19.52
2023-02-19T17:22:04.712Z,21.02
2023-02-19T17:24:32.373Z,16.60
2023-02-19T17:27:01.357Z,16.25
2023-02-19T17:29:33.678Z,13.02
2023-02-19T17:32:01.801Z,14.27
2023-02-19T17:34:29.662Z,16.63
2023-02-19T17:36:57.333Z,12.95
2023-02-19T17:39:25.081Z,15.25
2023-02-19T17:41:52.763Z,11.27
2023-02-19T17:44:21.777Z,14.68
2023-02-19T17:46:49.492Z,10.60
2023-02-19T17:49:17.193Z,15.50
2023-02-19T17:51:44.857Z,12.25
2023-02-19T17:54:12.537Z,16.58
2023-02-19T17:56:43.161Z,12.57
2023-02-19T17:59:11.393Z,13.85
2023-02-19T18:01:40.448Z,14.90
2023-02-19T18:04:08.445Z,11.10
2023-02-19T18:06:36.124Z,14.15
2023-02-19T18:09:03.811Z,12.80
2023-02-19T18:11:31.481Z,9.07
2023-02-19T18:13:59.550Z,11.80
2023-02-19T18:16:27.281Z,10.93
2023-02-19T18:18:58.244Z,11.32
2023-02-19T18:21:26.184Z,10.68
2023-02-19T18:23:53.879Z,9.43
2023-02-19T18:26:21.842Z,11.65
2023-02-19T18:28:49.707Z,8.10
2023-02-19T18:31:17.479Z,9.02
2023-02-19T18:33:45.184Z,10.88
2023-02-19T18:36:14.157Z,9.02
2023-02-19T18:38:42.073Z,13.13
2023-02-19T18:41:12.828Z,8.27
2023-02-19T18:43:41.558Z,6.90
2023-02-19T18:46:09.428Z,7.05
2023-02-19T18:48:37.232Z,6.07
2023-02-19T18:51:05.358Z,6.90
2023-02-19T18:53:34.353Z,9.05
2023-02-19T18:56:05.304Z,6.60
2023-02-19T18:58:32.966Z,8.32
2023-02-19T19:01:00.640Z,6.28
2023-02-19T19:03:30.334Z,5.88
2023-02-19T19:05:58.350Z,7.15
2023-02-19T19:08:26.004Z,10.43
2023-02-19T19:10:55.024Z,10.60
2023-02-19T19:13:22.698Z,4.90
2023-02-19T19:15:51.031Z,5.18
2023-02-19T19:18:19.156Z,6.60
2023-02-19T19:20:46.896Z,13.23
2023-02-19T19:23:14.597Z,6.70
2023-02-19T19:25:42.270Z,5.68
2023-02-19T19:28:11.270Z,4.03
2023-02-19T19:30:39.093Z,5.97
2023-02-19T19:33:06.844Z,4.75
2023-02-19T19:35:34.545Z,6.75
2023-02-19T19:38:02.292Z,4.72
2023-02-19T19:40:29.969Z,5.50
2023-02-19T19:42:57.631Z,4.85
2023-02-19T19:45:26.699Z,4.40
2023-02-19T19:47:54.403Z,3.63
2023-02-19T19:50:22.290Z,7.00
2023-02-19T19:52:49.954Z,6.25
2023-02-19T19:55:17.799Z,4.97
2023-02-19T19:57:45.536Z,6.38
2023-02-19T20:00:14.910Z,5.10
2023-02-19T20:02:43.944Z,3.42
2023-02-19T20:05:12.835Z,3.90
2023-02-19T20:07:40.663Z,5.15
2023-02-19T20:10:11.003Z,3.10
2023-02-19T20:12:39.535Z,2.90
2023-02-19T20:15:07.977Z,5.18
2023-02-19T20:17:52.304Z,3.22
2023-02-19T20:20:21.442Z,4.10
2023-02-19T20:22:49.218Z,6.05
2023-02-19T20:25:17.348Z,3.17
2023-02-19T20:27:45.027Z,6.18
2023-02-19T20:30:14.258Z,4.93
2023-02-19T20:32:41.944Z,3.75
2023-02-19T20:35:11.280Z,3.45
2023-02-19T20:37:39.152Z,2.95
2023-02-19T20:40:07.927Z,3.63
2023-02-19T20:42:35.653Z,4.65
2023-02-19T20:45:03.421Z,3.50
2023-02-19T20:47:31.117Z,3.05
2023-02-19T20:49:58.852Z,2.88
2023-02-19T20:52:27.881Z,3.17
2023-02-19T20:54:55.785Z,5.15
2023-02-19T20:57:23.649Z,4.10
2023-02-19T20:59:51.408Z,4.18
2023-02-19T21:02:20.234Z,4.15
2023-02-19T21:04:48.565Z,2.78
2023-02-19T21:07:16.234Z,2.20
2023-02-19T21:09:45.234Z,2.22
2023-02-19T21:12:13.058Z,4.07
2023-02-19T21:14:40.771Z,3.78
2023-02-19T21:17:08.464Z,2.28
2023-02-19T21:19:36.166Z,3.33
2023-02-19T21:22:03.891Z,2.67
2023-02-19T21:24:32.593Z,2.33
2023-02-19T21:27:01.603Z,2.40
2023-02-19T21:29:29.274Z,3.75
2023-02-19T21:31:57.525Z,2.78
2023-02-19T21:34:26.344Z,4.07
2023-02-19T21:36:54.116Z,3.60
2023-02-19T21:39:22.915Z,5.20
2023-02-19T21:41:50.762Z,3.33
2023-02-19T21:44:20.945Z,1.98
2023-02-19T21:46:48.678Z,2.80
2023-02-19T21:49:16.432Z,2.45
2023-02-19T21:51:44.863Z,2.67
2023-02-19T21:54:15.318Z,3.13
2023-02-19T21:56:43.094Z,2.75
2023-02-19T21:59:10.797Z,3.15
2023-02-19T22:01:39.876Z,2.72
2023-02-19T22:04:07.835Z,2.53
2023-02-19T22:06:35.540Z,4.10
2023-02-19T22:09:03.405Z,1.75
2023-02-19T22:11:31.120Z,2.83
2023-02-19T22:13:58.917Z,2.38
2023-02-19T22:16:26.772Z,1.80
2023-02-19T22:18:56.631Z,2.25
2023-02-19T22:21:25.108Z,3.83
2023-02-19T22:23:53.386Z,2.05
2023-02-19T22:26:21.700Z,1.88
2023-02-19T22:28:49.501Z,2.38
2023-02-19T22:31:17.292Z,1.23
2023-02-19T22:33:45.024Z,2.58
2023-02-19T22:36:18.033Z,3.03
2023-02-19T22:38:45.695Z,1.65
2023-02-19T22:41:13.358Z,3.13
2023-02-19T22:43:41.048Z,3.05
2023-02-19T22:46:10.961Z,2.72
2023-02-19T22:48:38.889Z,3.28
2023-02-19T22:51:10.206Z,2.47
2023-02-19T22:53:39.492Z,2.05
2023-02-19T22:56:07.556Z,1.70
2023-02-19T22:58:35.312Z,2.97
2023-02-19T23:01:03.004Z,3.70
2023-02-19T23:03:30.666Z,3.53
2023-02-19T23:05:58.327Z,2.85
2023-02-19T23:08:25.983Z,2.70
2023-02-19T23:10:54.978Z,4.07
2023-02-19T23:13:22.642Z,3.95
2023-02-19T23:15:50.369Z,3.75
2023-02-19T23:18:18.067Z,4.00
2023-02-19T23:20:45.737Z,4.60
2023-02-19T23:23:13.453Z,4.95
2023-02-19T23:25:41.173Z,5.20
2023-02-19T23:28:10.152Z,6.05
2023-02-19T23:30:37.914Z,6.85
2023-02-19T23:33:05.632Z,6.93
2023-02-19T23:35:33.300Z,7.63
2023-02-19T23:38:01.303Z,8.45
2023-02-19T23:40:28.983Z,9.23
2023-02-19T23:42:56.805Z,9.95
2023-02-19T23:45:25.808Z,11.32
2023-02-19T23:47:53.586Z,12.93
2023-02-19T23:50:21.241Z,13.48
2023-02-19T23:52:48.950Z,16.02
2023-02-19T23:55:16.813Z,17.67
2023-02-19T23:57:44.525Z,17.90
